Arta, Spain
Current Conditions -  °F | °C
As of 10:30 PM on Wednesday 26 Nov 2014 (Local Time) from LEPA Reporting Station
Scattered Clouds Scattered Clouds  
Wind Chill: 61°   Ceiling: Unl
Heat Index: 61°   Visibility: 6mi
Dew Point: 59°   Wind: 0mph
Humidity: 94%   Direction: NA
Pressure: 29.85"   Gusts: NA
Location:  39.69°N, 3.35°E
Report Text: LEPA 262130Z 00000KT 9999 FEW014 SCT025 16/15 Q1011 NOSIG
Loading
Personal Weather Stations






























Interactive Weather Map New forecast layout! Learn more

10-Day Weather Forecast

Advertisements
Track Severe Weather on mobile